Arvika, Sweden

4:53 AM CET on February 14, 2016 (GMT +0100)
Myra | | Change Station
CLOSE
Current Station
Personal Weather Station
Location: Aplung, VäRMLANDS LäN
Elevation: 341 ft
Nearby Weather Stations

Elev 341 ft 59.72 °N, 13.11 °E | Updated 11 minutes ago

Overcast
Overcast
22.8 °F
Feels Like 23 °F
N
0.0
Wind Variable Wind from NNW
Gusts 0.0 mph

Today
High -- | Low -- °F
--% Chance of Precip.
Yesterday
High -- | Low -- °F
Precip. -- in
Pressure 29.47 in
Visibility 6.2 miles
Clouds Overcast 3500 ft
Windchill 23 °F
Dew Point 16 °F
Humidity 75%
Rainfall 0.00 in
Snow Depth Not available.
7:50 AM 4:57 PM
Waxing Crescent, 37% visible
METAR ESOK 140320Z AUTO 34004KT 9999 OVC035/// M06/M06 Q0998
Pressure 29.47 in
Visibility 6.2 miles
Clouds Overcast 3500 ft
Windchill 23 °F
Dew Point 16 °F
Humidity 75%
Rainfall 0.00 in
Snow Depth Not available.
7:50 AM 4:57 PM
Waxing Crescent, 37% visible
METAR ESOK 140320Z AUTO 34004KT 9999 OVC035/// M06/M06 Q0998

10-Day Weather Forecast

Almanac

Astronomy

Feb. 14, 2016 Rise Set
Actual Time
Civil Twilight
Nautical Twilight
Astronomical Twilight
Moon
Length of Visible Light
Length of Day
Tomorrow will be .
, % of the Moon is Illuminated

Today's Extremes

Country Highs Country Lows

Community

WunderPhotos

Upload Photos

1,892,738 photos uploaded!

WunderBlog® & News

Nearby

Air Quality

  Air Quality AQ Index Pollutant
Not available.

Snow Depth

Station Depth Elevation

Earthquake Activity

City Distance Mag. Time & Date
Minimum magnitude displayed is 2.5.

Coastal Water Temperatures

Place Temperature

Stations

Nearby Weather Stations

Station Location Temp. Windchill Dew Point Humidity Wind Precip. Elev Updated Type